neil on the web!

ADDS Results

0230 UTC 19 April 2019

EGJB 190150Z 07008KT CAVOK 12/07 Q1022
EGJB 190050Z 07009KT CAVOK 12/07 Q1022
TAF EGJB 190157Z 1903/1912 06010KT CAVOK
PROB30
TEMPO 1903/1907 8000
EGJJ 190220Z AUTO 09011KT 9999 NCD 13/08 Q1022
EGJJ 190150Z AUTO 09012KT 9999 NCD 13/08 Q1022
EGJJ 190120Z AUTO 09012KT 9999 NCD 13/08 Q1022
EGJJ 190050Z AUTO 09012KT 9999 NCD 13/08 Q1022
TAF EGJJ 190157Z 1903/1912 06012KT CAVOK
PROB30
TEMPO 1903/1907 8000
EGKK 190220Z 07002KT CAVOK 08/06 Q1025
EGKK 190150Z 08003KT CAVOK 08/06 Q1025
EGKK 190120Z 05003KT CAVOK 09/06 Q1025
EGKK 190050Z 08002KT CAVOK 09/06 Q1025
TAF EGKK 182252Z 1900/2006 06007KT CAVOK
PROB40 1900/1909 5000 HZ
TEMPO 1920/2006 7000
PROB30 1923/2006 4000 HZ
EGSS 190220Z AUTO 34004KT 8000 NCD 07/05 Q1027
EGSS 190150Z AUTO VRB03KT 9000 NCD 08/05 Q1027
EGSS 190120Z AUTO 01004KT 9999 NCD 08/06 Q1027
EGSS 190050Z AUTO 01005KT 9999 NCD 08/06 Q1027
TAF AMD EGSS 190036Z 1900/2006 03006KT CAVOK
PROB30 1900/1909 8000
TEMPO 1921/2006 8000
PROB30 2003/2006 4000 HZ
EGGW 190220Z AUTO 02009KT 360V060 9999 NCD 08/06 Q1026
EGGW 190150Z AUTO 02008KT 9999 NCD 09/06 Q1026
EGGW 190120Z AUTO 02009KT 9999 NCD 09/06 Q1026
EGGW 190050Z AUTO 02008KT 9999 NCD 09/06 Q1026
TAF EGGW 182253Z 1900/1924 04006KT CAVOK
PROB30 1900/1909 8000
BECMG 1910/1913 10010KT
BECMG 1921/1924 04004KT
TEMPO 1921/1924 8000
EGSH 190220Z AUTO 02003KT 9000 NCD 09/07 Q1028
EGSH 190150Z AUTO 01003KT 9999 NCD 09/07 Q1028
EGSH 190120Z AUTO 01003KT 9000 NCD 09/07 Q1028
EGSH 190050Z AUTO 01003KT 8000 NCD 09/07 Q1028
TAF EGSH 190159Z 1903/1912 04005KT 6000 NSC
BECMG 1906/1909 9999
EGLC 190220Z AUTO 35003KT 9999 NCD 10/06 Q1026
EGLC 190150Z AUTO 35002KT 9999 NCD 10/06 Q1026
EGLC 190120Z AUTO 34002KT 9999 NCD 11/06 Q1026
EGLC 190050Z AUTO VRB02KT 9999 NCD 12/06 Q1026
TAF EGLC 190158Z 1903/1912 07007KT CAVOK
PROB30 1903/1908 8000
EGMC 190150Z 36004KT 8000 NSC 08/05 Q1026
TAF EGMC 190158Z 1903/1912 05005KT CAVOK
TEMPO 1903/1908 8000
EGLL 190220Z AUTO 05005KT 9999 NCD 10/05 Q1026 NOSIG
EGLL 190150Z AUTO 04004KT 9999 NCD 10/05 Q1026 NOSIG
EGLL 190120Z AUTO 05006KT 9999 NCD 11/06 Q1026 NOSIG
EGLL 190050Z AUTO 05004KT 9999 NCD 11/06 Q1026 NOSIG
TAF EGLL 182254Z 1900/2006 03005KT CAVOK
PROB40 1900/1909 7000
BECMG 1912/1915 09010KT
BECMG 1921/1924 03005KT 7000
TAF EGHI 181701Z 1818/1822 08004KT CAVOK
TAF EGHH 181958Z 1821/1906 08008KT CAVOK
TEMPO 1900/1903 8000
EGCC 190220Z AUTO 07003KT 9999 NCD 11/05 Q1028 NOSIG
EGCC 190150Z AUTO 06003KT 9999 NCD 10/05 Q1028 NOSIG
EGCC 190120Z AUTO 06005KT 9999 NCD 09/05 Q1028 NOSIG
EGCC 190050Z AUTO VRB01KT 9999 NCD 11/06 Q1028 NOSIG
TAF EGCC 182259Z 1900/2006 08007KT 9999 FEW045
PROB30
TEMPO 1900/1909 8000
PROB30
TEMPO 1921/2006 8000
EGNX 190220Z VRB03KT 7000 NSC 07/06 Q1028
EGNX 190150Z 34004KT 8000 NSC 07/06 Q1028
EGNX 190120Z 02005KT 330V060 8000 NSC 08/06 Q1028
EGNX 190050Z 02006KT 350V050 8000 NSC 08/06 Q1028
TAF EGNX 182253Z 1900/1924 06009KT CAVOK
TEMPO 1900/1909 8000
PROB30 1903/1907 4000 HZ
EGGP 190120Z 05007KT 9999 FEW036 09/05 Q1028
EGGP 190050Z 06005KT 9999 FEW036 11/06 Q1028
TAF EGGP 182259Z 1900/1924 07007KT 9999 FEW035
PROB30
TEMPO 1900/1909 8000
EGNM 190220Z 04004KT CAVOK 07/05 Q1029
EGNM 190150Z 04004KT 010V070 CAVOK 07/05 Q1029
EGNM 190120Z 05006KT 020V080 CAVOK 07/05 Q1029
EGNM 190050Z 05006KT 020V090 CAVOK 07/05 Q1029
TAF EGNM 182253Z 1900/1924 03005KT CAVOK
TEMPO 1900/1909 8000
PROB30 1900/1907 4000 HZ
BECMG 1909/1912 09010KT
TEMPO 1919/1924 8000
BECMG 1921/1924 VRB03KT
EGBB 190220Z 34004KT 7000 NSC 08/06 Q1028
EGBB 190150Z 33004KT 7000 NSC 08/06 Q1028
EGBB 190120Z 34004KT 8000 NSC 09/07 Q1028
EGBB 190050Z 34004KT 9000 NSC 09/07 Q1028
TAF EGBB 182253Z 1900/1924 06008KT CAVOK
TEMPO 1900/1908 8000
EGGD 190220Z AUTO 06008KT 9999 NCD 09/04 Q1026
EGGD 190150Z AUTO 05008KT 9999 NCD 10/05 Q1026
EGGD 190120Z AUTO 06008KT 9999 NCD 09/04 Q1026
EGGD 190050Z AUTO 08008KT 9999 NCD 09/04 Q1026
TAF EGGD 182253Z 1900/1924 08009KT CAVOK
PROB40 1900/1909 8000
EGFF 190220Z AUTO 07010KT 9999 NCD 12/05 Q1026
EGFF 190150Z AUTO 09008KT 9999 NCD 13/05 Q1026
EGFF 190120Z AUTO 07008KT 9999 NCD 13/05 Q1026
EGFF 190050Z AUTO 07009KT 9999 NCD 13/06 Q1025
TAF EGFF 182253Z 1900/1924 07009KT CAVOK
PROB30 1900/1907 8000
EGTE 190050Z 35002KT CAVOK 09/08 Q1024
TAF EGTE 182252Z 1900/1903 12006KT CAVOK
EGPF 190220Z AUTO 08008KT 9000 NCD 08/06 Q1030
EGPF 190150Z AUTO 07006KT 9999 NCD 08/06 Q1030
EGPF 190120Z AUTO 07009KT 9000 NCD 08/06 Q1030
EGPF 190050Z AUTO 07005KT 9000 NCD 08/06 Q1030
TAF EGPF 182259Z 1900/1924 07009KT 9999 FEW040
TEMPO 1900/1912 6000
BECMG 1912/1915 17010KT
BECMG 1916/1919 VRB03KT
EGPH 190220Z 07007KT 3900 BR OVC003 07/07 Q1030
EGPH 190150Z 06006KT 4400 BR OVC003 07/07 Q1030
EGPH 190120Z 06007KT 5000 BR BKN003 07/07 Q1030
EGPH 190050Z 04004KT 360V070 4700 BR BKN003 07/07 Q1030
TAF EGPH 182259Z 1900/1924 05009KT 6000 SCT004
TEMPO 1900/1909 4000 BR BKN004
PROB40
TEMPO 1900/1908 0500 FG VV///
BECMG 1909/1912 9999
EGPK 190150Z 00000KT 9999 FEW045 09/05 Q1028
EGPK 190050Z 10005KT 9999 FEW045 10/05 Q1028
TAF EGPK 182259Z 1900/1924 10009KT 9999 FEW040
PROB40 1900/1909 8000
BECMG 1912/1915 17010KT
BECMG 1916/1919 VRB03KT
EHAM 190225Z 06010KT CAVOK 12/05 Q1027 NOSIG
EHAM 190155Z 06010KT CAVOK 12/05 Q1027 NOSIG
EHAM 190125Z 06011KT CAVOK 12/05 Q1027 NOSIG
EHAM 190055Z 06012KT CAVOK 13/04 Q1027 NOSIG
TAF EHAM 182311Z 1900/2006 06009KT CAVOK
LFLS 190200Z AUTO 08007KT 9999 FEW060 OVC072 10/06 Q1023 NOSIG
LFLS 190130Z AUTO 09006KT 9999 BKN060 OVC072 10/06 Q1023 NOSIG
LFLS 190100Z AUTO 09006KT 9999 BKN064 BKN074 10/06 Q1023 NOSIG
TAF LFLS 190200Z 1903/2003 09006KT CAVOK
BECMG 1907/1910 VRB03KT
LFLL 190200Z 12005KT CAVOK 14/05 Q1022 NOSIG
LFLL 190130Z 13004KT CAVOK 14/05 Q1022 NOSIG
LFLL 190100Z 15007KT CAVOK 14/05 Q1022 NOSIG
TAF LFLL 182300Z 1900/2006 18007KT CAVOK
LFLC 190200Z AUTO 06003KT 020V080 CAVOK 10/01 Q1021 NOSIG
LFLC 190130Z AUTO VRB02KT CAVOK 10/01 Q1021 NOSIG
LFLC 190100Z AUTO 30003KT CAVOK 12/01 Q1021 NOSIG
TAF LFLC 190200Z 1903/2003 VRB02KT CAVOK
BECMG 1907/1910 16007KT
LFRD 190200Z AUTO 09005KT CAVOK 13/10 Q1021 TEMPO 3000 BR
LFRD 190130Z AUTO 08005KT CAVOK 13/10 Q1021 TEMPO 3000 BR
LFRD 190100Z AUTO 08005KT CAVOK 14/10 Q1021 TEMPO 3000 BR
TAF LFRD 182300Z 1900/1924 VRB03KT CAVOK
PROB30
TEMPO 1902/1906 3000 BR
BECMG 1912/1915 01010KT
BECMG 1919/1922 VRB04KT
LFRC 190200Z AUTO 08009KT 7000 NSC 11/08 Q1023
LFRC 190130Z AUTO 08008KT 9000 NSC 11/07 Q1023
LFRC 190100Z AUTO 08007KT 8000 NSC 11/07 Q1023
VHHH 190200Z 20013KT 170V230 9999 FEW010 SCT025 29/24 Q1008 NOSIG
VHHH 190130Z 19012KT 160V230 9999 FEW010 SCT025 29/24 Q1007 NOSIG
VHHH 190100Z 19009KT 150V230 9999 FEW010 SCT025 28/24 Q1008 NOSIG
TAF VHHH 182300Z 1900/2006 18010KT 8000 FEW015 SCT025 TX29/1906Z TX30/2006Z
TN25/1922Z
TEMPO 1900/1903 VRB15G25KT 2500 TSRA SHRA FEW008 SCT015CB BKN040
TEMPO 1903/1907 3000 SHRA FEW010CB SCT020
TEMPO 1907/1913 VRB20G30KT 2000 TSRA +SHRA FEW008 SCT015CB BKN040